Airfield :
LOGIN :

Register | Disclaimer

   EN    FR    IT 

 










Legend :    VFR   Marginal VFR   IFR   Intensive IFR   Very Intensive IFR
Visi :
Ceiling :
>= 8 km
>= 3000ft
5 to 8 km
1000 to 3000 ft
1500m to 5 km
500 to 1000 ft
800 to 1500m
200 to 500 ft
< 800m
< 200 ft
Symbols :   Thunderstorms  Fog  Heavy snow  Heavy precipitations  Wind > 20 kt
SIGMETs :     Misc.  Thunderstorms  Icing  Turbulence  Mountain Waves  Volcanic Ashes






- Airport Elevation : 1411 ft
- IATA code : GVA


LSGG - Genève Cointrin

CURRENT METAR :
  • 171150Z 30004KT 260V340 9999 VCSH FEW035 BKN050 08/M00 Q1013 NOSIG

EXPIRED METARs :
  • 171120Z 27007KT 9999 -SHRA FEW035 BKN050 08/01 Q1014 NOSIG
  • 171050Z VRB03KT 9999 VCSH FEW035 BKN050 09/M01 Q1013 NOSIG
  • 171020Z 24006KT 200V290 9999 VCSH FEW035 BKN050 09/01 Q1014 NOSIG
  • 170950Z 27005KT 190V320 9999 VCSH FEW035 BKN050 09/M01 Q1014 NOSIG
  • 170920Z 27004KT 230V350 9999 VCSH FEW035 BKN050 08/02 Q1014 NOSIG
  • 170850Z VRB03KT 9999 -SHRA FEW030 BKN045 07/03 Q1014 NOSIG
  • 170820Z 22006KT 180V270 9999 -SHRA FEW030 BKN045 08/01 Q1014 NOSIG
  • 170750Z VRB03KT 9999 FEW035 BKN045 07/M01 Q1014 NOSIG
  • 170720Z VRB02KT 9999 -SHRA FEW035 BKN045 07/03 Q1014 NOSIG

TAF TAF LSGG
Valid from the 17 at 12:00 until the 18 at 18:00 UTC


171125Z 1712/1818 24005KT 9999 FEW035 BKN050 TX10/1715Z TN03/1806Z TX04/1806Z
TEMPO 1712/1720 SHRA SCT030TCU
BECMG 1807/1810 04010KT
ATIS : +41 22 417 40 81



MET'MAP, your aeronautical weather chart ! - Copyright ORBIFLY December 2007 - Disclaimer

ORBIFLY MET'MAP TEAM :

Programming & Development : Alexandra Zaïnal
Original concept : Baudouin d'Aumeries
Technical & hardware support : Manuel Goepfert
Assistance : Marc-Olivier Méhu




SOURCES & CREDITS :

   NOAA